Time;durP1;ratioP1;P1;durP2;ratioP2;P2;SDS_P1;SDS_P2;PMS_P1;PMS_P2;Temp;Humidity;BMP_temperature;BMP_pressure;BME280_temperature;BME280_humidity;BME280_pressure;Samples;Min_cycle;Max_cycle;Signal;HPM_P1;HPM_P2
2022/03/12 00:01:01;;;;;;;33.60;16.00;;;;;;;;;;4955145;29;20031;-72
2022/03/12 00:03:31;;;;;;;32.42;15.85;;;;;;;;;;4956241;29;20027;-73
2022/03/12 00:05:58;;;;;;;29.70;15.68;;;;;;;;;;4956092;28;20031;-74
2022/03/12 00:08:34;;;;;;;38.28;17.58;;;;;;;;;;4957907;29;20038;-70
2022/03/12 00:11:01;;;;;;;40.88;21.42;;;;;;;;;;4955916;29;20107;-73
2022/03/12 00:13:27;;;;;;;40.05;20.27;;;;;;;;;;4955954;29;20046;-76
2022/03/12 00:15:58;;;;;;;43.20;20.90;;;;;;;;;;4947084;29;20050;-71
2022/03/12 00:18:25;;;;;;;45.13;22.13;;;;;;;;;;4948508;28;20039;-73
2022/03/12 00:20:51;;;;;;;47.22;26.00;;;;;;;;;;4948626;29;20082;-71
2022/03/12 00:23:18;;;;;;;56.55;27.58;;;;;;;;;;4955298;29;20082;-73
2022/03/12 00:25:46;;;;;;;52.78;24.67;;;;;;;;;;4954478;29;20477;-73
2022/03/12 00:28:12;;;;;;;41.53;21.48;;;;;;;;;;4937263;29;20059;-73
2022/03/12 00:30:42;;;;;;;40.40;18.85;;;;;;;;;;4946957;29;20039;-72
2022/03/12 00:33:08;;;;;;;37.60;18.35;;;;;;;;;;4923940;29;20027;-76
2022/03/12 00:35:36;;;;;;;32.58;15.32;;;;;;;;;;4957646;29;20023;-72
2022/03/12 00:38:03;;;;;;;34.20;15.73;;;;;;;;;;4958511;29;20394;-71
2022/03/12 00:40:31;;;;;;;37.75;15.55;;;;;;;;;;4956810;29;20035;-75
2022/03/12 00:42:57;;;;;;;35.42;15.88;;;;;;;;;;4959169;29;20098;-71
2022/03/12 00:45:23;;;;;;;34.15;16.08;;;;;;;;;;4955947;29;20781;-72
2022/03/12 00:47:50;;;;;;;37.33;16.77;;;;;;;;;;4947392;29;20110;-74
2022/03/12 00:50:19;;;;;;;32.67;15.32;;;;;;;;;;4956435;29;20095;-73
2022/03/12 00:52:46;;;;;;;33.22;16.08;;;;;;;;;;4958454;29;20027;-73
2022/03/12 00:55:12;;;;;;;37.78;17.13;;;;;;;;;;4953404;29;20035;-72
2022/03/12 00:57:38;;;;;;;34.60;15.52;;;;;;;;;;4958745;29;20366;-73
2022/03/12 01:00:07;;;;;;;36.28;16.25;;;;;;;;;;4957914;28;20358;-71
2022/03/12 01:02:33;;;;;;;44.58;16.58;;;;;;;;;;4949386;29;20045;-72
2022/03/12 01:04:59;;;;;;;35.50;15.88;;;;;;;;;;4953974;29;20039;-72
2022/03/12 01:07:25;;;;;;;33.63;15.25;;;;;;;;;;4955773;29;20110;-71
2022/03/12 01:09:56;;;;;;;43.63;17.95;;;;;;;;;;4960722;29;20041;-74
2022/03/12 01:12:22;;;;;;;41.42;17.92;;;;;;;;;;4957159;29;20493;-71
2022/03/12 01:14:48;;;;;;;46.60;18.13;;;;;;;;;;4954393;29;20102;-72
2022/03/12 01:17:15;;;;;;;37.08;15.65;;;;;;;;;;4955889;29;20023;-71
2022/03/12 01:19:41;;;;;;;41.72;15.77;;;;;;;;;;4955086;29;20130;-74
2022/03/12 01:22:08;;;;;;;37.55;17.23;;;;;;;;;;4953369;29;20035;-71
2022/03/12 01:24:35;;;;;;;38.65;15.05;;;;;;;;;;4956922;29;20021;-70
2022/03/12 01:27:01;;;;;;;34.42;14.73;;;;;;;;;;4954993;29;20063;-70
2022/03/12 01:29:27;;;;;;;31.17;14.48;;;;;;;;;;4955188;29;20496;-70
2022/03/12 01:31:53;;;;;;;27.67;14.35;;;;;;;;;;4943157;28;20074;-75
2022/03/12 01:34:20;;;;;;;30.10;14.70;;;;;;;;;;4958827;29;20031;-71
2022/03/12 01:36:46;;;;;;;39.75;16.20;;;;;;;;;;4958110;29;20034;-73
2022/03/12 01:39:13;;;;;;;34.80;15.88;;;;;;;;;;4956605;28;20485;-76
2022/03/12 01:41:40;;;;;;;38.08;15.27;;;;;;;;;;4958897;29;20392;-75
2022/03/12 01:44:07;;;;;;;33.78;15.82;;;;;;;;;;4951519;28;20400;-75
2022/03/12 01:46:35;;;;;;;37.33;17.88;;;;;;;;;;4955451;29;20037;-71
2022/03/12 01:49:04;;;;;;;47.53;19.92;;;;;;;;;;4945460;29;20027;-76
2022/03/12 01:51:33;;;;;;;68.88;30.02;;;;;;;;;;4960375;29;20035;-73
2022/03/12 01:54:02;;;;;;;92.90;36.08;;;;;;;;;;4959338;29;20031;-71
2022/03/12 01:56:29;;;;;;;50.55;22.10;;;;;;;;;;4953294;28;20032;-74
2022/03/12 01:58:57;;;;;;;41.47;17.85;;;;;;;;;;4954383;29;20031;-72
2022/03/12 02:01:27;;;;;;;50.10;21.45;;;;;;;;;;4955380;29;20042;-74
2022/03/12 02:03:53;;;;;;;39.38;18.52;;;;;;;;;;4958995;29;20019;-74
2022/03/12 02:06:22;;;;;;;31.70;15.60;;;90.10;1843.20;;;;;;4955360;29;20063;-72
2022/03/12 02:08:56;;;;;;;28.70;15.07;;;90.20;1868.80;;;;;;4953226;29;20503;-72
2022/03/12 02:11:28;;;;;;;27.90;14.32;;;90.20;1868.80;;;;;;4936723;29;20043;-72
2022/03/12 02:14:10;;;;;;;30.92;14.55;;;90.20;1868.80;;;;;;4948933;29;20023;-71
2022/03/12 02:16:37;;;;;;;27.20;13.48;;;90.20;1843.20;;;;;;4946759;29;20492;-70
2022/03/12 02:19:03;;;;;;;33.72;15.45;;;90.30;1868.80;;;;;;4954829;29;20081;-72
2022/03/12 02:21:44;;;;;;;26.90;14.35;;;90.30;1868.80;;;;;;4953725;29;20405;-73
2022/03/12 02:24:12;;;;;;;29.95;13.80;;;90.40;1894.40;;;;;;4954164;29;20032;-72
2022/03/12 02:26:43;;;;;;;25.73;13.30;;;90.40;1894.40;;;;;;4953985;29;20023;-71
2022/03/12 02:29:12;;;;;;;25.73;12.85;;;90.40;1920.00;;;;;;4942156;29;20039;-70
2022/03/12 02:31:45;;;;;;;32.25;13.93;;;90.40;1894.40;;;;;;4952487;29;20481;-69
2022/03/12 02:34:13;;;;;;;26.17;12.80;;;90.40;1920.00;;;;;;4955186;29;20476;-75
2022/03/12 02:36:40;;;;;;;26.90;13.32;;;90.40;1920.00;;;;;;4954671;29;20047;-71
2022/03/12 02:39:07;;;;;;;26.58;12.70;;;90.40;1920.00;;;;;;4954917;29;20039;-73
2022/03/12 02:41:40;;;;;;;24.63;12.52;;;90.50;1920.00;;;;;;4954906;28;20034;-73
2022/03/12 02:44:07;;;;;;;26.30;13.15;;;90.50;1945.60;;;;;;4952827;29;20062;-70
2022/03/12 02:46:35;;;;;;;22.52;11.73;;;90.50;1945.60;;;;;;4940186;29;20032;-70
2022/03/12 02:49:01;;;;;;;22.33;12.57;;;90.50;1945.60;;;;;;4939043;29;20038;-74
2022/03/12 02:51:26;;;;;;;30.73;14.02;;;90.50;1920.00;;;;;;4959335;29;20043;-70
2022/03/12 02:53:56;;;;;;;30.63;14.52;;;115.20;1971.20;;;;;;4961728;29;20027;-75
2022/03/12 02:56:26;;;;;;;36.53;17.45;;;115.30;1971.20;;;;;;4963363;29;20040;-73
2022/03/12 02:58:54;;;;;;;32.53;16.67;;;115.30;1971.20;;;;;;4962009;29;20400;-77
2022/03/12 03:01:22;;;;;;;33.58;17.08;;;115.20;1996.80;;;;;;4938871;29;20038;-73
2022/03/12 03:03:48;;;;;;;34.53;16.50;;;115.20;1971.20;;;;;;4956669;29;20055;-70
2022/03/12 03:06:15;;;;;;;35.95;17.33;;;115.20;1971.20;;;;;;4956443;29;20130;-71
2022/03/12 03:08:42;;;;;;;48.40;21.83;;;115.20;1996.80;;;;;;4957655;28;20485;-71
2022/03/12 03:11:17;;;;;;;68.28;28.30;;;115.40;2022.40;;;;;;4940716;29;20094;-72
2022/03/12 03:13:44;;;;;;;67.45;28.92;;;115.40;1996.80;;;;;;4957978;29;20023;-70
2022/03/12 03:16:25;;;;;;;60.17;25.25;;;115.30;2048.00;;;;;;4956600;29;20034;-70
2022/03/12 03:18:53;;;;;;;39.75;18.70;;;115.40;1996.80;;;;;;4942345;29;20063;-71
2022/03/12 03:21:26;;;;;;;38.10;18.27;;;115.40;1996.80;;;;;;4959613;29;20114;-70
2022/03/12 03:23:53;;;;;;;28.85;14.75;;;115.40;1996.80;;;;;;4957374;29;20483;-70
2022/03/12 03:26:42;;;;;;;29.80;14.52;;;115.50;1996.80;;;;;;4958694;29;20122;-74
2022/03/12 03:29:09;;;;;;;33.97;14.77;;;115.50;2022.40;;;;;;4957143;29;20167;-72
2022/03/12 03:31:39;;;;;;;25.50;13.40;;;115.50;2022.40;;;;;;4956810;29;20118;-71
2022/03/12 03:34:04;;;;;;;29.90;14.57;;;115.50;1996.80;;;;;;4956330;29;20106;-73
2022/03/12 03:36:30;;;;;;;24.90;12.73;;;115.50;2022.40;;;;;;4957190;29;20168;-72
2022/03/12 03:38:56;;;;;;;26.75;13.30;;;115.50;1996.80;;;;;;4955999;28;20024;-72
2022/03/12 03:41:21;;;;;;;27.77;13.93;;;115.50;1971.20;;;;;;4956850;29;20034;-71
2022/03/12 03:43:48;;;;;;;26.60;14.23;;;115.50;1971.20;;;;;;4956198;29;20023;-72
2022/03/12 03:46:21;;;;;;;27.77;13.40;;;90.10;1996.80;;;;;;4955360;29;20079;-69
2022/03/12 03:48:50;;;;;;;26.90;13.57;;;115.60;1996.80;;;;;;4953658;29;20118;-71
2022/03/12 03:51:16;;;;;;;31.55;16.30;;;115.60;1996.80;;;;;;4953678;29;20175;-72
2022/03/12 03:53:42;;;;;;;31.95;18.23;;;115.60;2022.40;;;;;;4955237;28;20020;-71
2022/03/12 03:56:08;;;;;;;33.45;17.33;;;115.60;2073.60;;;;;;4945252;29;20051;-72
2022/03/12 03:58:38;;;;;;;47.90;21.13;;;115.60;2048.00;;;;;;4939872;29;20031;-73
2022/03/12 04:01:12;;;;;;;48.80;19.15;;;115.50;2048.00;;;;;;4950177;29;20031;-71
2022/03/12 04:03:42;;;;;;;41.22;17.20;;;115.40;2048.00;;;;;;4954140;29;20031;-72
2022/03/12 04:06:08;;;;;;;36.58;14.13;;;115.40;2022.40;;;;;;4955872;29;20039;-74
2022/03/12 04:08:35;;;;;;;30.77;14.30;;;115.40;2022.40;;;;;;4952913;29;20035;-72
2022/03/12 04:11:05;;;;;;;31.73;13.55;;;115.40;2022.40;;;;;;4957547;29;20110;-72
2022/03/12 04:13:32;;;;;;;29.25;15.00;;;115.50;2022.40;;;;;;4949030;29;20032;-72
2022/03/12 04:15:59;;;;;;;30.38;13.10;;;115.60;2022.40;;;;;;4941833;29;20027;-76
2022/03/12 04:18:29;;;;;;;31.10;12.75;;;115.60;2048.00;;;;;;4955341;29;20042;-71
2022/03/12 04:20:57;;;;;;;28.33;14.10;;;115.70;2073.60;;;;;;4956877;29;20050;-73
2022/03/12 04:23:24;;;;;;;26.90;12.73;;;115.60;2073.60;;;;;;4937240;29;20036;-72
2022/03/12 04:25:53;;;;;;;32.70;15.85;;;115.70;2099.20;;;;;;4956203;29;20039;-74
2022/03/12 04:28:21;;;;;;;37.08;16.02;;;115.70;2124.80;;;;;;4937105;29;20857;-71
2022/03/12 04:30:47;;;;;;;41.60;20.17;;;115.70;2124.80;;;;;;4960055;29;20374;-72
2022/03/12 04:33:14;;;;;;;41.03;20.13;;;115.70;2150.40;;;;;;4954219;29;20027;-71
2022/03/12 04:35:43;;;;;;;42.25;20.70;;;115.70;2150.40;;;;;;4956226;29;20484;-74
2022/03/12 04:38:10;;;;;;;39.00;18.15;;;115.80;2176.00;;;;;;4955645;28;20027;-70
2022/03/12 04:40:39;;;;;;;31.55;16.35;;;115.80;2176.00;;;;;;4948012;29;20027;-71
2022/03/12 04:43:06;;;;;;;34.60;16.73;;;115.90;2176.00;;;;;;4940925;29;20059;-72
2022/03/12 04:45:32;;;;;;;35.28;16.50;;;115.90;2176.00;;;;;;4921981;29;20126;-71
2022/03/12 04:47:58;;;;;;;42.78;21.35;;;140.80;2176.00;;;;;;4955913;29;20062;-74
2022/03/12 04:50:25;;;;;;;34.78;15.90;;;115.90;2176.00;;;;;;4954473;29;20489;-74
2022/03/12 04:52:58;;;;;;;40.63;18.50;;;115.80;2176.00;;;;;;4955875;29;20068;-71
2022/03/12 04:55:28;;;;;;;34.42;15.70;;;116.00;2176.00;;;;;;4956174;29;20027;-71
2022/03/12 04:57:54;;;;;;;27.25;13.77;;;116.00;2176.00;;;;;;4936559;29;20046;-73
2022/03/12 05:00:27;;;;;;;27.73;13.50;;;116.00;2176.00;;;;;;4958502;29;20086;-71
2022/03/12 05:03:18;;;;;;;30.33;14.83;;;115.80;2176.00;;;;;;4954747;29;20378;-70
2022/03/12 05:05:47;;;;;;;28.33;13.00;;;116.00;2176.00;;;;;;4935944;29;20051;-71
2022/03/12 05:08:24;;;;;;;30.02;14.20;;;115.90;2176.00;;;;;;4945167;29;20029;-75
2022/03/12 05:10:54;;;;;;;36.75;16.38;;;116.00;2176.00;;;;;;4945451;29;20074;-72
2022/03/12 05:13:24;;;;;;;29.40;14.30;;;115.90;2176.00;;;;;;4953899;29;20053;-72
2022/03/12 05:15:57;;;;;;;31.40;15.00;;;115.90;2176.00;;;;;;4949807;29;20075;-71
2022/03/12 05:18:25;;;;;;;27.77;12.57;;;115.90;2176.00;;;;;;4949659;29;20385;-69
2022/03/12 05:20:51;;;;;;;30.27;14.30;;;115.80;2176.00;;;;;;4939127;29;20032;-70
2022/03/12 05:23:18;;;;;;;50.80;24.60;;;115.80;2176.00;;;;;;4944703;29;20069;-69
2022/03/12 05:25:46;;;;;;;64.60;27.00;;;115.70;2176.00;;;;;;4951076;29;20081;-72
2022/03/12 05:28:15;;;;;;;36.33;17.75;;;115.60;2176.00;;;;;;4950472;29;20476;-76
2022/03/12 05:30:44;;;;;;;31.85;15.07;;;115.40;2150.40;;;;;;4944726;28;20037;-76
2022/03/12 05:33:10;;;;;;;31.48;15.63;;;115.20;2150.40;;;;;;4957560;29;20075;-75
2022/03/12 05:35:39;;;;;;;32.15;14.85;;;115.50;2150.40;;;;;;4943488;29;20023;-77
2022/03/12 05:38:06;;;;;;;32.47;15.32;;;90.30;2124.80;;;;;;4956492;29;20382;-72
2022/03/12 05:40:38;;;;;;;29.60;15.07;;;90.10;2099.20;;;;;;4954563;29;20027;-75
2022/03/12 05:43:09;;;;;;;35.15;16.15;;;89.90;2073.60;;;;;;4953652;29;20122;-72
2022/03/12 05:45:37;;;;;;;32.10;17.08;;;89.70;2048.00;;;;;;4947939;29;20031;-77
2022/03/12 05:48:04;;;;;;;33.08;16.70;;;89.60;2099.20;;;;;;4949900;28;20087;-76
2022/03/12 05:50:30;;;;;;;33.58;17.27;;;;;;;;;;4947469;29;20106;-76
2022/03/12 05:52:56;;;;;;;31.98;16.38;;;;;;;;;;4944865;29;20027;-76
2022/03/12 05:55:23;;;;;;;32.17;16.85;;;;;;;;;;4946017;29;20038;-75
2022/03/12 05:57:51;;;;;;;31.02;16.70;;;;;;;;;;4949330;29;20058;-77
2022/03/12 06:00:18;;;;;;;36.53;17.92;;;;;;;;;;4958011;29;20495;-79
2022/03/12 06:02:52;;;;;;;35.22;18.23;;;;;;;;;;4956454;29;20035;-77
2022/03/12 06:05:18;;;;;;;38.55;17.38;;;;;;;;;;4955552;29;20492;-72
2022/03/12 06:07:46;;;;;;;36.13;18.33;;;;;;;;;;4938094;29;20087;-73
2022/03/12 06:10:13;;;;;;;38.10;19.20;;;;;;;;;;4954030;29;20023;-71
2022/03/12 06:12:43;;;;;;;41.17;22.63;;;;;;;;;;4952149;29;20118;-74
2022/03/12 06:15:10;;;;;;;31.83;18.05;;;;;;;;;;4951285;29;20118;-74
2022/03/12 06:17:41;;;;;;;36.58;19.55;;;;;;;;;;4951718;28;20023;-71
2022/03/12 06:20:10;;;;;;;33.55;18.85;;;;;;;;;;4951284;29;20047;-75
2022/03/12 06:22:38;;;;;;;31.95;19.52;;;;;;;;;;4958030;28;20015;-71
2022/03/12 06:25:08;;;;;;;62.55;42.55;;;;;;;;;;4951964;29;20156;-72
2022/03/12 06:27:37;;;;;;;38.83;23.00;;;;;;;;;;4956384;28;20023;-73
2022/03/12 06:30:08;;;;;;;38.83;21.35;;;;;;;;;;4963980;28;20098;-76
2022/03/12 06:32:35;;;;;;;34.95;21.13;;;;;;;;;;4954758;29;20059;-72
2022/03/12 06:35:01;;;;;;;41.17;26.27;;;;;;;;;;4953173;29;20023;-72
2022/03/12 06:37:27;;;;;;;31.30;18.65;;;;;;;;;;4954946;28;20031;-74
2022/03/12 06:39:55;;;;;;;33.80;23.13;;;;;;;;;;4953442;29;20106;-72
2022/03/12 06:42:22;;;;;;;33.88;20.92;;;;;;;;;;4959708;29;20027;-74
2022/03/12 06:44:51;;;;;;;26.80;17.40;;;;;;;;;;4953904;29;20042;-76
2022/03/12 06:47:17;;;;;;;29.40;17.90;;;;;;;;;;4955799;29;20034;-73
2022/03/12 06:49:43;;;;;;;31.63;17.95;;;;;;;;;;4957014;29;20035;-73
2022/03/12 06:52:12;;;;;;;35.38;21.00;;;;;;;;;;4957057;29;20063;-72
2022/03/12 06:54:38;;;;;;;30.52;17.95;;;;;;;;;;4954517;29;20042;-72
2022/03/12 06:57:05;;;;;;;47.92;24.80;;;;;;;;;;4952368;29;20035;-74
2022/03/12 06:59:38;;;;;;;35.30;21.20;;;;;;;;;;4961840;29;20027;-76
2022/03/12 07:02:04;;;;;;;43.72;20.75;;;;;;;;;;4955807;29;20036;-76
2022/03/12 07:04:30;;;;;;;40.42;21.10;;;;;;;;;;4946707;29;20035;-76
2022/03/12 07:06:56;;;;;;;31.98;20.13;;;;;;;;;;4936456;29;20027;-76
2022/03/12 07:09:22;;;;;;;30.77;19.80;;;;;;;;;;4947334;29;20039;-73
2022/03/12 07:11:48;;;;;;;33.65;20.23;;;;;;;;;;4964779;29;20036;-74
2022/03/12 07:14:15;;;;;;;31.42;21.33;;;;;;;;;;4943082;29;20063;-72
2022/03/12 07:16:41;;;;;;;37.72;21.08;;;;;;;;;;4968036;29;20393;-73
2022/03/12 07:19:07;;;;;;;32.20;20.50;;;;;;;;;;4949891;29;20083;-87
2022/03/12 07:21:34;;;;;;;31.50;20.20;;;;;;;;;;4950772;29;20035;-76
2022/03/12 07:24:00;;;;;;;31.35;21.27;;;;;;;;;;4935928;29;20043;-82
2022/03/12 07:26:26;;;;;;;31.17;18.98;;;;;;;;;;4952409;29;20031;-77
2022/03/12 07:28:52;;;;;;;34.72;21.35;;;;;;;;;;4951649;28;20035;-73
2022/03/12 07:31:21;;;;;;;34.33;21.88;;;;;;;;;;4957051;29;20071;-85
2022/03/12 07:33:47;;;;;;;33.60;20.20;;;;;;;;;;4954553;29;20031;-75
2022/03/12 07:36:13;;;;;;;31.73;20.45;;;;;;;;;;4955500;29;20034;-77
2022/03/12 07:38:39;;;;;;;38.65;21.20;;;;;;;;;;4934995;28;20020;-73
2022/03/12 07:41:06;;;;;;;32.45;20.88;;;;;;;;;;4964405;28;20031;-81
2022/03/12 07:43:32;;;;;;;37.83;21.02;;;;;;;;;;4935410;29;20426;-73
2022/03/12 07:45:58;;;;;;;39.78;21.23;;;;;;;;;;4958521;28;20059;-73
2022/03/12 07:48:24;;;;;;;32.45;20.88;;;;;;;;;;4925615;29;20042;-78
2022/03/12 07:50:51;;;;;;;33.65;20.25;;;;;;;;;;4937254;29;20525;-74
2022/03/12 07:53:17;;;;;;;38.20;23.30;;;;;;;;;;4948283;29;20115;-69
2022/03/12 07:55:46;;;;;;;34.85;21.70;;;;;;;;;;4952313;29;20019;-69
2022/03/12 07:58:14;;;;;;;42.00;22.38;;;;;;;;;;4950716;28;20031;-71
2022/03/12 08:00:43;;;;;;;37.85;25.15;;;;;;;;;;4950620;29;20090;-77
2022/03/12 08:03:10;;;;;;;35.00;23.05;;;;;;;;;;4953371;29;20040;-74
2022/03/12 08:05:36;;;;;;;34.53;20.75;;;;;;;;;;4954432;29;20410;-72
2022/03/12 08:08:04;;;;;;;38.78;21.65;;;;;;;;;;4952633;28;20058;-72
2022/03/12 08:11:24;;;;;;;35.45;20.58;;;;;;;;;;4949503;29;20026;-72
2022/03/12 08:13:21;;;;;;;34.22;20.13;;;;;;;;;;4953747;29;20429;-70
2022/03/12 08:15:53;;;;;;;27.95;18.95;;;;;;;;;;4952525;29;20425;-72
2022/03/12 08:18:19;;;;;;;36.70;19.55;;;;;;;;;;4935733;29;20417;-71
2022/03/12 08:20:50;;;;;;;28.05;17.63;;;;;;;;;;4950987;29;20039;-83
2022/03/12 08:23:17;;;;;;;32.53;18.90;;;;;;;;;;4935468;29;20046;-79
2022/03/12 08:25:43;;;;;;;27.52;16.90;;;;;;;;;;4944159;29;20489;-70
2022/03/12 08:28:10;;;;;;;24.75;15.63;;;;;;;;;;4939413;29;20043;-70
2022/03/12 08:30:39;;;;;;;20.88;14.18;;;;;;;;;;4945495;29;20399;-70
2022/03/12 08:33:05;;;;;;;30.75;15.07;;;;;;;;;;4932470;29;20032;-70
2022/03/12 08:35:31;;;;;;;21.10;13.05;;;;;;;;;;4954688;29;20031;-69
2022/03/12 08:37:58;;;;;;;25.48;15.60;;;;;;;;;;4952794;28;20078;-80
2022/03/12 08:40:25;;;;;;;24.67;15.40;;;;;;;;;;4950112;28;20051;-72
2022/03/12 08:42:52;;;;;;;26.92;16.55;;;;;;;;;;4950294;29;20034;-75
2022/03/12 08:45:18;;;;;;;25.80;16.45;;;;;;;;;;4953229;29;20019;-81
2022/03/12 08:47:44;;;;;;;28.55;17.17;;;;;;;;;;4949025;29;20070;-77
2022/03/12 08:50:11;;;;;;;27.38;16.10;;;;;;;;;;4952137;29;20027;-72
2022/03/12 08:52:38;;;;;;;25.83;15.65;;;;;;;;;;4947760;29;20058;-74
2022/03/12 08:55:05;;;;;;;29.48;15.52;;;;;;;;;;4953060;29;20078;-74
2022/03/12 08:57:31;;;;;;;25.13;14.55;;;;;;;;;;4954987;29;20023;-78
2022/03/12 08:59:57;;;;;;;22.85;13.88;;;;;;;;;;4953091;28;20038;-78
2022/03/12 09:02:23;;;;;;;43.25;27.80;;;;;;;;;;4949875;29;20078;-74
2022/03/12 09:04:53;;;;;;;25.95;13.55;;;;;;;;;;4956802;29;20027;-74
2022/03/12 09:07:20;;;;;;;23.15;13.77;;;;;;;;;;4950803;29;20442;-74
2022/03/12 09:09:46;;;;;;;21.38;13.38;;;;;;;;;;4941072;29;20035;-74
2022/03/12 09:12:12;;;;;;;24.88;13.20;;;;;;;;;;4938702;29;20114;-74
2022/03/12 09:14:38;;;;;;;25.55;13.20;;;;;;;;;;4956802;29;20067;-73
2022/03/12 09:17:05;;;;;;;23.67;13.45;;;;;;;;;;4959481;29;20034;-75
2022/03/12 09:19:32;;;;;;;21.75;12.27;;;;;;;;;;4941225;29;20054;-73
2022/03/12 09:21:59;;;;;;;21.13;12.48;;;;;;;;;;4927683;29;20039;-72
2022/03/12 09:24:26;;;;;;;20.42;11.15;;;;;;;;;;4941533;29;20040;-72
2022/03/12 09:26:52;;;;;;;18.65;11.50;;;;;;;;;;4933722;29;20024;-72
2022/03/12 09:29:18;;;;;;;21.58;11.43;;;;;;;;;;4932107;29;20026;-73
2022/03/12 09:31:44;;;;;;;19.13;11.77;;;;;;;;;;4935353;29;20567;-73
2022/03/12 09:34:10;;;;;;;26.60;11.68;;;;;;;;;;4932766;29;20534;-73
2022/03/12 09:36:38;;;;;;;22.15;10.95;;;;;;;;;;4933712;29;20028;-73
2022/03/12 09:39:06;;;;;;;20.98;11.10;;;;;;;;;;4931648;29;20075;-72
2022/03/12 09:41:33;;;;;;;19.88;10.93;;;;;;;;;;4927425;29;20044;-76
2022/03/12 09:44:00;;;;;;;23.30;11.52;;;;;;;;;;4932184;29;20023;-73
2022/03/12 09:46:26;;;;;;;19.13;10.52;;;;;;;;;;4936309;29;20028;-73
2022/03/12 09:48:52;;;;;;;19.15;10.30;;;;;;;;;;4930397;29;20026;-74
2022/03/12 09:51:19;;;;;;;20.40;10.15;;;;;;;;;;4933973;29;20115;-73
2022/03/12 09:53:45;;;;;;;19.15;10.52;;;;;;;;;;4932390;29;20032;-72
2022/03/12 09:56:11;;;;;;;17.48;10.95;;;;;;;;;;4934765;29;20020;-71
2022/03/12 09:58:38;;;;;;;18.38;9.55;;;;;;;;;;4934993;29;20024;-71
2022/03/12 10:01:06;;;;;;;20.08;9.68;;;;;;;;;;4943325;29;20032;-71
2022/03/12 10:03:32;;;;;;;20.13;10.35;;;;;;;;;;4929675;29;20023;-73
2022/03/12 10:05:59;;;;;;;16.95;10.50;;;;;;;;;;4935163;29;20036;-72
2022/03/12 10:08:25;;;;;;;19.67;10.10;;;;;;;;;;4934799;29;20036;-72
2022/03/12 10:10:51;;;;;;;22.17;11.13;;;;;;;;;;4933854;29;20036;-73
2022/03/12 10:13:17;;;;;;;14.45;9.18;;;;;;;;;;4932687;29;20047;-71
2022/03/12 10:15:44;;;;;;;15.00;8.75;;;;;;;;;;4933004;29;20024;-71
2022/03/12 10:18:11;;;;;;;18.83;9.50;;;;;;;;;;4934645;29;20031;-72
2022/03/12 10:20:37;;;;;;;12.55;7.93;;;;;;;;;;4955675;29;20034;-72
2022/03/12 10:23:04;;;;;;;15.00;8.80;;;;;;;;;;4952868;29;20394;-73
2022/03/12 10:25:30;;;;;;;17.67;8.90;;;;;;;;;;4947384;29;20032;-73
2022/03/12 10:27:56;;;;;;;13.02;7.97;;;;;;;;;;4951860;29;20082;-71
2022/03/12 10:30:22;;;;;;;12.93;8.05;;;;;;;;;;4937279;29;20039;-74
2022/03/12 10:32:49;;;;;;;13.05;8.23;;;;;;;;;;4937067;29;20032;-71
2022/03/12 10:35:20;;;;;;;24.60;9.18;;;;;;;;;;4954283;29;20038;-72
2022/03/12 10:37:48;;;;;;;12.90;8.23;;;;;;;;;;4954834;28;20114;-71
2022/03/12 10:40:21;;;;;;;13.85;8.23;;;;;;;;;;4953987;29;20130;-72
2022/03/12 10:42:47;;;;;;;12.27;7.65;;;;;;;;;;4954553;29;20486;-74
2022/03/12 10:45:15;;;;;;;13.50;8.43;;;;;;;;;;4952436;29;20042;-72
2022/03/12 10:47:41;;;;;;;18.95;7.70;;;;;;;;;;4947747;29;20019;-72
2022/03/12 10:50:14;;;;;;;11.98;7.53;;;;;;;;;;4956065;29;20114;-75
2022/03/12 10:52:43;;;;;;;10.38;6.80;;;;;;;;;;4941480;29;20702;-74
2022/03/12 10:55:16;;;;;;;11.50;6.50;;;;;;;;;;4949850;29;20034;-74
2022/03/12 10:57:56;;;;;;;11.98;7.45;;;;;;;;;;4948209;29;20031;-72
2022/03/12 11:00:22;;;;;;;13.27;7.43;;;;;;;;;;4962485;28;20386;-72
2022/03/12 11:02:54;;;;;;;13.38;7.00;;;;;;;;;;4950016;28;20508;-73
2022/03/12 11:05:25;;;;;;;10.60;5.90;;;;;;;;;;4951851;29;20031;-73
2022/03/12 11:07:52;;;;;;;12.02;6.80;;;;;;;;;;4959420;28;20118;-74
2022/03/12 11:10:40;;;;;;;9.02;5.93;;;;;;;;;;4941920;29;20556;-78
2022/03/12 11:13:06;;;;;;;10.48;6.32;;;;;;;;;;4930915;29;20067;-75
2022/03/12 11:15:32;;;;;;;11.27;6.38;;;;;;;;;;4918761;29;20174;-72
2022/03/12 11:18:02;;;;;;;12.70;6.72;;;;;;;;;;4917819;29;20433;-74
2022/03/12 11:20:29;;;;;;;8.93;5.85;;;;;;;;;;4918426;29;20096;-74
2022/03/12 11:31:59;;;;;;;14.23;6.38;;;;;;;;;;5286732;23;20509;-72
2022/03/12 11:34:27;;;;;;;7.93;5.45;;;;;;;;;;4963753;28;20023;-71
2022/03/12 11:37:07;;;;;;;8.90;5.85;;;;;;;;;;4963530;28;20034;-76
2022/03/12 11:39:33;;;;;;;12.68;6.00;;;;;;;;;;4966897;28;20023;-75
2022/03/12 11:42:02;;;;;;;10.70;6.00;;;;;;;;;;4977931;28;20062;-74
2022/03/12 11:44:29;;;;;;;10.73;5.93;;;;;;;;;;4975934;28;20030;-74
2022/03/12 11:46:56;;;;;;;8.85;6.03;;;;;;;;;;4975520;28;20031;-75
2022/03/12 11:49:23;;;;;;;10.52;6.55;;;;;;;;;;4977160;28;20023;-73
2022/03/12 11:51:49;;;;;;;10.02;6.38;;;;;;;;;;4975877;28;20023;-73
2022/03/12 11:54:15;;;;;;;10.90;5.78;;;;;;;;;;4973272;28;20027;-71
2022/03/12 11:56:41;;;;;;;13.00;6.85;;;;;;;;;;4977297;28;20027;-75
2022/03/12 11:59:07;;;;;;;8.50;5.95;;;;;;;;;;4953368;28;20038;-75
2022/03/12 12:01:36;;;;;;;12.27;5.63;;;;;;;;;;4966301;28;20027;-75
2022/03/12 12:04:02;;;;;;;19.35;6.47;;;;;;;;;;4970658;28;20035;-75
2022/03/12 12:06:28;;;;;;;11.55;7.60;;;;;;;;;;4949457;29;20035;-75
2022/03/12 12:08:55;;;;;;;7.65;5.50;;;;;;;;;;4964492;28;20038;-76
2022/03/12 12:11:22;;;;;;;10.95;5.70;;;;;;;;;;4970982;28;20073;-75
2022/03/12 12:13:48;;;;;;;10.48;5.97;;;;;;;;;;4948734;28;20027;-77
2022/03/12 12:16:16;;;;;;;9.13;5.45;;;;;;;;;;4963938;28;20082;-74
2022/03/12 12:18:42;;;;;;;13.90;5.78;;;;;;;;;;4955093;28;20061;-74
2022/03/12 12:21:14;;;;;;;8.38;5.20;;;;;;;;;;4971833;28;20031;-73
2022/03/12 12:23:40;;;;;;;9.27;5.60;;;;;;;;;;4957173;28;20038;-73
2022/03/12 12:26:07;;;;;;;10.88;5.63;;;;;;;;;;4960084;28;20035;-71
2022/03/12 12:28:45;;;;;;;9.15;5.72;;;;;;;;;;4981572;28;20023;-73
2022/03/12 12:31:14;;;;;;;7.45;4.78;;;;;;;;;;4975425;28;20051;-73
2022/03/12 12:33:44;;;;;;;8.35;5.55;;;;;;;;;;4969857;28;20059;-70
2022/03/12 12:36:14;;;;;;;9.68;5.50;;;;;;;;;;4964731;29;20485;-73
2022/03/12 12:38:43;;;;;;;7.28;4.95;;;;;;;;;;4949005;28;20052;-73
2022/03/12 12:41:10;;;;;;;9.27;5.32;;;;;;;;;;4956088;28;20034;-76
2022/03/12 12:43:47;;;;;;;9.00;4.80;;;;;;;;;;4951907;28;20026;-76
2022/03/12 12:46:13;;;;;;;6.93;5.10;;;;;;;;;;4956097;28;20074;-72
2022/03/12 12:48:43;;;;;;;7.90;5.18;;;;;;;;;;4971810;28;20074;-72
2022/03/12 12:51:12;;;;;;;9.75;5.68;;;;;;;;;;4942770;29;20047;-72
2022/03/12 12:53:40;;;;;;;8.15;5.53;;;;;;;;;;4961678;28;20119;-71
2022/03/12 12:56:18;;;;;;;7.30;5.15;;;;;;;;;;4944775;28;20543;-72
2022/03/12 12:58:53;;;;;;;9.48;5.18;;;;;;;;;;4986732;28;20027;-73
2022/03/12 13:01:24;;;;;;;12.57;5.75;;;;;;;;;;4949743;29;20085;-72
2022/03/12 13:03:51;;;;;;;7.53;5.13;;;;;;;;;;4964147;29;20063;-71
2022/03/12 13:06:36;;;;;;;9.05;5.78;;;;;;;;;;4966433;28;20031;-72
2022/03/12 13:09:08;;;;;;;7.85;5.22;;;;;;;;;;4939269;29;20024;-71
2022/03/12 13:11:34;;;;;;;12.68;6.15;;;;;;;;;;4961443;28;20055;-73
2022/03/12 13:14:02;;;;;;;13.60;6.13;;;;;;;;;;4964546;28;20034;-76
2022/03/12 13:16:28;;;;;;;19.08;6.30;;;;;;;;;;4966211;28;20703;-73
2022/03/12 13:18:54;;;;;;;14.55;6.50;;;;;;;;;;4965935;28;20106;-73
2022/03/12 13:21:36;;;;;;;10.10;5.78;;;;;;;;;;4971621;28;20528;-74
2022/03/12 13:24:07;;;;;;;10.18;6.43;;;;;;;;;;4961177;28;20027;-76
2022/03/12 13:26:38;;;;;;;19.30;8.68;;;;;;;;;;4958471;28;20570;-71
2022/03/12 13:29:10;;;;;;;11.48;7.13;;;;;;;;;;4958779;28;20031;-71
2022/03/12 13:31:38;;;;;;;10.63;6.78;;;;;;;;;;4967114;28;20058;-74
2022/03/12 13:34:15;;;;;;;11.90;7.15;;;;;;;;;;4962690;29;20019;-71
2022/03/12 13:36:45;;;;;;;15.82;8.10;;;;;;;;;;4969812;29;20034;-72
2022/03/12 13:39:12;;;;;;;13.80;8.00;;;;;;;;;;4970772;28;20380;-73
2022/03/12 13:41:41;;;;;;;17.10;11.25;;;;;;;;;;4974594;28;20358;-73
2022/03/12 13:44:07;;;;;;;13.68;9.13;;;;;;;;;;4970526;28;20074;-72
2022/03/12 13:46:34;;;;;;;12.98;7.70;;;;;;;;;;4975139;28;20094;-73
2022/03/12 13:49:06;;;;;;;10.82;6.65;;;;;;;;;;4972960;28;20042;-72
2022/03/12 13:51:33;;;;;;;13.18;7.10;;;;;;;;;;4965185;28;20420;-75
2022/03/12 13:54:01;;;;;;;11.05;6.97;;;;;;;;;;4953486;28;20106;-71